createdAt,value
2019-03-02T00:01:30.096Z,6.53
2019-03-02T00:03:57.534Z,7.03
2019-03-02T00:06:24.966Z,6.97
2019-03-02T00:08:52.729Z,7.07
2019-03-02T00:11:20.675Z,7.30
2019-03-02T00:13:47.623Z,6.97
2019-03-02T00:16:15.047Z,7.10
2019-03-02T00:18:42.484Z,6.77
2019-03-02T00:21:09.933Z,7.03
2019-03-02T00:23:39.444Z,7.33
2019-03-02T00:26:06.217Z,8.40
2019-03-02T00:28:32.727Z,7.17
2019-03-02T00:30:59.950Z,8.10
2019-03-02T00:33:27.384Z,7.97
2019-03-02T00:35:54.799Z,7.07
2019-03-02T00:38:22.246Z,7.57
2019-03-02T00:40:49.694Z,7.93
2019-03-02T00:43:17.122Z,7.97
2019-03-02T00:45:45.979Z,9.53
2019-03-02T00:48:12.469Z,9.13
2019-03-02T00:50:39.519Z,9.77
2019-03-02T00:53:06.957Z,9.70
2019-03-02T00:55:34.399Z,8.82
2019-03-02T00:58:01.805Z,8.67
2019-03-02T01:00:29.326Z,9.70
2019-03-02T01:02:56.771Z,9.63
2019-03-02T01:05:24.203Z,9.90
2019-03-02T01:07:51.659Z,10.03
2019-03-02T01:10:22.623Z,10.33
2019-03-02T01:12:46.543Z,9.63
2019-03-02T01:15:14.712Z,10.68
2019-03-02T01:17:42.171Z,11.07
2019-03-02T01:20:09.583Z,11.07
2019-03-02T01:22:37.006Z,11.17
2019-03-02T01:25:04.483Z,11.90
2019-03-02T01:27:35.013Z,11.97
2019-03-02T01:29:59.362Z,11.87
2019-03-02T01:32:26.797Z,11.15
2019-03-02T01:34:54.240Z,11.50
2019-03-02T01:37:21.670Z,11.20
2019-03-02T01:39:49.120Z,11.03
2019-03-02T01:42:16.547Z,11.87
2019-03-02T01:44:43.988Z,12.17
2019-03-02T01:47:12.475Z,12.87
2019-03-02T01:49:38.948Z,11.13
2019-03-02T01:52:06.377Z,12.15
2019-03-02T01:54:33.811Z,12.17
2019-03-02T01:57:02.409Z,12.13
2019-03-02T01:59:29.931Z,13.50
2019-03-02T02:02:00.139Z,12.35
2019-03-02T02:04:24.837Z,12.53
2019-03-02T02:06:52.271Z,14.00
2019-03-02T02:09:19.708Z,12.80
2019-03-02T02:11:49.796Z,12.70
2019-03-02T02:14:14.996Z,13.98
2019-03-02T02:16:42.767Z,13.48
2019-03-02T02:19:10.184Z,12.88
2019-03-02T02:21:37.614Z,13.03
2019-03-02T02:24:05.111Z,13.33
2019-03-02T02:26:32.569Z,13.03
2019-03-02T02:29:00.000Z,12.35
2019-03-02T02:31:27.470Z,13.40
2019-03-02T02:33:54.930Z,13.17
2019-03-02T02:36:22.349Z,12.53
2019-03-02T02:38:54.094Z,13.10
2019-03-02T02:41:22.099Z,13.30
2019-03-02T02:43:44.739Z,12.73
2019-03-02T02:46:12.210Z,13.87
2019-03-02T02:48:39.657Z,13.27
2019-03-02T02:51:10.238Z,13.50
2019-03-02T02:53:34.538Z,14.20
2019-03-02T02:56:02.626Z,12.63
2019-03-02T02:58:30.058Z,13.10
2019-03-02T03:00:57.511Z,13.03
2019-03-02T03:03:24.968Z,13.13
2019-03-02T03:05:54.095Z,11.90
2019-03-02T03:08:19.874Z,11.80
2019-03-02T03:10:47.331Z,11.80
2019-03-02T03:13:14.760Z,11.32
2019-03-02T03:15:42.202Z,12.00
2019-03-02T03:18:12.542Z,11.77
2019-03-02T03:20:37.124Z,11.90
2019-03-02T03:23:04.622Z,10.77
2019-03-02T03:25:32.078Z,10.80
2019-03-02T03:27:59.529Z,11.13
2019-03-02T03:30:35.333Z,10.97
2019-03-02T03:32:58.962Z,11.07
2019-03-02T03:35:21.946Z,9.60
2019-03-02T03:37:51.283Z,11.20
2019-03-02T03:40:20.138Z,9.73
2019-03-02T03:42:44.368Z,10.25
2019-03-02T03:45:12.520Z,10.70
2019-03-02T03:47:40.485Z,9.75
2019-03-02T03:50:09.279Z,10.55
2019-03-02T03:52:34.926Z,10.93
2019-03-02T03:55:02.372Z,10.43
2019-03-02T03:57:29.821Z,9.77
2019-03-02T03:59:58.821Z,10.30
2019-03-02T04:02:26.142Z,9.97
2019-03-02T04:04:54.149Z,9.77
2019-03-02T04:07:21.799Z,9.93
2019-03-02T04:09:49.217Z,9.57
2019-03-02T04:12:19.917Z,9.03
2019-03-02T04:14:44.142Z,9.00
2019-03-02T04:17:11.567Z,9.73
2019-03-02T04:19:39.018Z,9.20
2019-03-02T04:22:07.907Z,9.10
2019-03-02T04:24:34.973Z,9.27
2019-03-02T04:27:02.003Z,9.57
2019-03-02T04:29:29.412Z,8.97
2019-03-02T04:31:56.869Z,9.90
2019-03-02T04:34:24.292Z,10.13
2019-03-02T04:36:51.744Z,10.90
2019-03-02T04:39:19.552Z,11.60
2019-03-02T04:41:47.007Z,11.75
2019-03-02T04:44:14.428Z,10.97
2019-03-02T04:46:41.881Z,11.17
2019-03-02T04:49:10.930Z,12.90
2019-03-02T04:51:38.835Z,12.10
2019-03-02T04:54:05.099Z,12.03
2019-03-02T04:56:32.533Z,11.40
2019-03-02T04:58:59.994Z,11.77
2019-03-02T05:01:29.048Z,11.63
2019-03-02T05:03:57.274Z,13.80
2019-03-02T05:06:24.088Z,13.70
2019-03-02T05:08:51.558Z,15.40
2019-03-02T05:11:19.011Z,16.13
2019-03-02T05:13:46.445Z,15.70
2019-03-02T05:16:13.916Z,16.05
2019-03-02T05:18:41.332Z,18.93
2019-03-02T05:21:08.774Z,17.47
2019-03-02T05:23:36.222Z,19.87
2019-03-02T05:26:03.641Z,19.03
2019-03-02T05:28:31.989Z,17.67
2019-03-02T05:31:02.620Z,19.00
2019-03-02T05:33:28.876Z,18.20
2019-03-02T05:35:55.940Z,19.00
2019-03-02T05:38:23.491Z,19.85
2019-03-02T05:40:50.935Z,20.62
2019-03-02T05:43:18.362Z,20.17
2019-03-02T05:45:45.813Z,20.60
2019-03-02T05:48:13.237Z,20.47
2019-03-02T05:50:40.697Z,20.23
2019-03-02T05:53:08.136Z,21.37
2019-03-02T05:55:36.382Z,22.02
2019-03-02T05:58:06.629Z,22.70
2019-03-02T06:00:37.742Z,21.43
2019-03-02T06:03:01.754Z,20.53
2019-03-02T06:05:29.181Z,23.47
2019-03-02T06:07:57.681Z,22.90
2019-03-02T06:10:25.383Z,20.90
2019-03-02T06:12:52.993Z,22.40
2019-03-02T06:15:19.026Z,22.25
2019-03-02T06:17:47.244Z,23.23
2019-03-02T06:20:14.741Z,21.53
2019-03-02T06:22:42.182Z,22.23
2019-03-02T06:25:19.134Z,22.77
2019-03-02T06:27:43.213Z,22.63
2019-03-02T06:30:17.477Z,22.97
2019-03-02T06:32:46.482Z,22.15
2019-03-02T06:35:14.026Z,23.70
2019-03-02T06:37:41.491Z,24.35
2019-03-02T06:40:09.875Z,23.63
2019-03-02T06:42:37.387Z,23.73
2019-03-02T06:45:05.731Z,22.63
2019-03-02T06:47:33.349Z,23.60
2019-03-02T06:50:00.191Z,23.13
2019-03-02T06:52:27.298Z,22.37
2019-03-02T06:54:54.736Z,22.02
2019-03-02T06:57:22.211Z,22.87
2019-03-02T06:59:49.666Z,21.43
2019-03-02T07:02:17.086Z,23.40
2019-03-02T07:04:44.548Z,21.62
2019-03-02T07:07:12.773Z,21.13
2019-03-02T07:09:41.824Z,22.17
2019-03-02T07:12:09.470Z,21.30
2019-03-02T07:14:35.510Z,23.30
2019-03-02T07:17:02.936Z,20.30
2019-03-02T07:19:33.735Z,20.27
2019-03-02T07:22:01.155Z,20.60
2019-03-02T07:24:29.396Z,20.77
2019-03-02T07:26:56.113Z,21.67
2019-03-02T07:29:24.248Z,22.47
2019-03-02T07:31:51.669Z,21.93
2019-03-02T07:34:19.111Z,21.33
2019-03-02T07:36:46.562Z,20.60
2019-03-02T07:39:13.989Z,21.40
2019-03-02T07:41:43.172Z,23.77
2019-03-02T07:44:10.686Z,22.47
2019-03-02T07:46:38.577Z,21.33
2019-03-02T07:49:09.145Z,21.97
2019-03-02T07:51:33.487Z,25.60
2019-03-02T07:54:02.086Z,25.03
2019-03-02T07:56:29.649Z,21.93
2019-03-02T07:58:57.083Z,21.70
2019-03-02T08:01:24.504Z,23.93
2019-03-02T08:03:51.947Z,21.70
2019-03-02T08:06:22.031Z,20.83
2019-03-02T08:08:49.217Z,20.13
2019-03-02T08:11:14.373Z,20.93
2019-03-02T08:13:41.823Z,22.47
2019-03-02T08:16:11.378Z,20.43
2019-03-02T08:18:39.159Z,20.65
2019-03-02T08:21:06.603Z,20.83
2019-03-02T08:23:34.027Z,20.83
2019-03-02T08:26:01.489Z,19.13
2019-03-02T08:28:28.907Z,21.37
2019-03-02T08:30:56.381Z,22.17
2019-03-02T08:33:23.811Z,20.13
2019-03-02T08:35:51.270Z,22.95
2019-03-02T08:38:18.699Z,22.97
2019-03-02T08:40:46.146Z,23.42
2019-03-02T08:43:16.491Z,24.30
2019-03-02T08:45:41.087Z,24.70
2019-03-02T08:48:08.537Z,22.40
2019-03-02T08:50:35.993Z,22.20
2019-03-02T08:53:03.454Z,25.20
2019-03-02T08:55:33.594Z,22.63
2019-03-02T08:57:58.658Z,25.00
2019-03-02T09:00:25.844Z,24.20
2019-03-02T09:02:55.069Z,25.02
2019-03-02T09:05:25.993Z,24.97
2019-03-02T09:07:49.486Z,26.05
2019-03-02T09:10:16.955Z,28.10
2019-03-02T09:12:44.378Z,24.60
2019-03-02T09:15:25.940Z,25.10
2019-03-02T09:17:50.125Z,26.23
2019-03-02T09:20:17.118Z,24.20
2019-03-02T09:22:44.584Z,26.90
2019-03-02T09:25:20.301Z,27.47
2019-03-02T09:27:48.689Z,28.50
2019-03-02T09:30:16.722Z,29.13
2019-03-02T09:32:47.203Z,27.13
2019-03-02T09:35:12.892Z,26.20
2019-03-02T09:37:40.930Z,28.40
2019-03-02T09:40:10.196Z,28.37
2019-03-02T09:42:40.230Z,26.93
2019-03-02T09:45:03.154Z,29.80
2019-03-02T09:47:30.630Z,27.67
2019-03-02T09:49:58.039Z,27.23
2019-03-02T09:52:25.455Z,28.70
2019-03-02T09:54:54.290Z,29.17
2019-03-02T09:57:21.833Z,27.40
2019-03-02T09:59:49.338Z,26.67
2019-03-02T10:02:16.790Z,28.00
2019-03-02T10:04:44.255Z,26.87
2019-03-02T10:07:11.676Z,29.13
2019-03-02T10:09:39.165Z,27.42
2019-03-02T10:12:09.982Z,29.07
2019-03-02T10:14:35.122Z,27.37
2019-03-02T10:17:01.539Z,25.90
2019-03-02T10:19:29.775Z,25.87
2019-03-02T10:21:56.464Z,23.77
2019-03-02T10:24:25.258Z,25.45
2019-03-02T10:26:52.679Z,24.90
2019-03-02T10:29:20.121Z,26.00
2019-03-02T10:31:47.578Z,25.02
2019-03-02T10:34:15.014Z,27.23
2019-03-02T10:36:42.431Z,25.87
2019-03-02T10:39:09.881Z,25.40
2019-03-02T10:41:37.293Z,23.97
2019-03-02T10:44:04.748Z,23.73
2019-03-02T10:46:32.224Z,24.07
2019-03-02T10:48:59.695Z,24.60
2019-03-02T10:51:27.107Z,19.50
2019-03-02T10:53:55.892Z,23.23
2019-03-02T10:56:24.722Z,21.93
2019-03-02T10:58:50.385Z,22.17
2019-03-02T11:01:17.903Z,22.07
2019-03-02T11:03:45.386Z,25.27
2019-03-02T11:06:14.225Z,20.13
2019-03-02T11:08:45.649Z,21.00
2019-03-02T11:11:16.515Z,24.80
2019-03-02T11:13:45.751Z,19.17
2019-03-02T11:16:24.119Z,19.70
2019-03-02T11:18:57.059Z,20.77
2019-03-02T11:21:40.378Z,19.33
2019-03-02T11:24:11.309Z,19.13
2019-03-02T11:26:39.443Z,21.00
2019-03-02T11:29:06.870Z,17.27
2019-03-02T11:31:34.322Z,20.27
2019-03-02T11:34:01.745Z,18.53
2019-03-02T11:36:32.753Z,17.93
2019-03-02T11:39:17.363Z,17.73
2019-03-02T11:42:03.629Z,17.30
2019-03-02T11:44:33.401Z,17.37
2019-03-02T11:47:06.355Z,18.30
2019-03-02T11:49:34.849Z,16.25
2019-03-02T11:52:07.224Z,15.30
2019-03-02T11:54:35.481Z,16.23
2019-03-02T11:57:08.042Z,16.37
2019-03-02T11:59:35.083Z,16.60
2019-03-02T12:02:15.358Z,16.60
2019-03-02T12:04:36.171Z,14.33
2019-03-02T12:07:09.147Z,15.95
2019-03-02T12:09:39.142Z,14.23
2019-03-02T12:12:06.563Z,16.47
2019-03-02T12:14:34.732Z,16.10
2019-03-02T12:17:17.154Z,16.15
2019-03-02T12:19:56.225Z,16.57
2019-03-02T12:22:23.681Z,14.27
2019-03-02T12:24:58.502Z,16.93
2019-03-02T12:27:38.382Z,16.02
2019-03-02T12:30:27.169Z,16.37
2019-03-02T12:32:53.924Z,16.40
2019-03-02T12:35:26.150Z,17.30
2019-03-02T12:38:07.234Z,14.23
2019-03-02T12:40:49.233Z,17.42
2019-03-02T12:43:31.562Z,15.60
2019-03-02T12:46:16.884Z,15.35
2019-03-02T12:48:43.284Z,15.13
2019-03-02T12:51:16.011Z,16.30
2019-03-02T12:54:04.818Z,16.05
2019-03-02T12:56:38.616Z,14.53
2019-03-02T12:59:06.078Z,15.33
2019-03-02T13:01:37.767Z,14.63
2019-03-02T13:04:09.356Z,14.73
2019-03-02T13:06:37.691Z,15.30
2019-03-02T13:09:05.011Z,15.05
2019-03-02T13:11:36.300Z,13.93
2019-03-02T13:14:10.846Z,17.10
2019-03-02T13:16:40.253Z,14.13
2019-03-02T13:19:28.319Z,14.27
2019-03-02T13:21:58.309Z,15.83
2019-03-02T13:24:26.649Z,15.07
2019-03-02T13:26:54.098Z,13.77
2019-03-02T13:29:27.456Z,12.67
2019-03-02T13:32:06.762Z,15.18
2019-03-02T13:34:47.367Z,13.70
2019-03-02T13:37:11.587Z,12.43
2019-03-02T13:39:47.132Z,13.07
2019-03-02T13:42:27.816Z,15.43
2019-03-02T13:45:00.867Z,14.30
2019-03-02T13:47:34.411Z,14.07
2019-03-02T13:50:02.216Z,14.77
2019-03-02T13:52:31.056Z,12.73
2019-03-02T13:55:13.395Z,13.60
2019-03-02T13:57:45.357Z,12.68
2019-03-02T14:00:13.720Z,13.60
2019-03-02T14:02:43.573Z,12.43
2019-03-02T14:05:12.018Z,19.47
2019-03-02T14:07:52.214Z,12.60
2019-03-02T14:10:26.200Z,17.00
2019-03-02T14:12:56.085Z,14.35
2019-03-02T14:15:35.369Z,11.93
2019-03-02T14:18:24.398Z,12.75
2019-03-02T14:20:52.871Z,12.53
2019-03-02T14:23:26.290Z,12.07
2019-03-02T14:25:56.185Z,11.20
2019-03-02T14:28:21.164Z,12.63
2019-03-02T14:31:05.530Z,11.90
2019-03-02T14:33:36.904Z,13.20
2019-03-02T14:36:04.224Z,13.23
2019-03-02T14:38:33.506Z,21.17
2019-03-02T14:41:04.804Z,20.43
2019-03-02T14:43:36.500Z,13.43
2019-03-02T14:46:06.811Z,11.60
2019-03-02T14:48:34.626Z,13.00
2019-03-02T14:51:07.497Z,12.50
2019-03-02T14:53:49.831Z,12.35
2019-03-02T14:56:22.830Z,12.73
2019-03-02T14:58:50.275Z,12.03
2019-03-02T15:01:36.027Z,12.00
2019-03-02T15:04:15.000Z,12.03
2019-03-02T15:06:48.012Z,11.83
2019-03-02T15:09:17.246Z,12.17
2019-03-02T15:11:50.323Z,11.00
2019-03-02T15:14:18.565Z,10.63
2019-03-02T15:17:03.873Z,11.57
2019-03-02T15:19:34.825Z,12.57
2019-03-02T15:22:04.235Z,11.67
2019-03-02T15:24:31.685Z,11.80
2019-03-02T15:26:59.123Z,9.85
2019-03-02T15:29:27.404Z,11.27
2019-03-02T15:31:59.889Z,10.70
2019-03-02T15:34:49.339Z,10.00
2019-03-02T15:37:15.127Z,8.90
2019-03-02T15:39:43.989Z,9.40
2019-03-02T15:42:12.184Z,9.98
2019-03-02T15:44:43.056Z,9.40
2019-03-02T15:47:10.031Z,9.33
2019-03-02T15:49:40.313Z,9.23
2019-03-02T15:52:17.758Z,9.73
2019-03-02T15:54:50.841Z,9.43
2019-03-02T15:57:20.806Z,9.60
2019-03-02T16:00:06.010Z,9.00
2019-03-02T16:02:47.221Z,13.93
2019-03-02T16:05:20.099Z,17.43
2019-03-02T16:08:00.262Z,12.80
2019-03-02T16:10:45.002Z,10.50
2019-03-02T16:13:20.766Z,10.00
2019-03-02T16:16:06.239Z,10.77
2019-03-02T16:18:49.215Z,11.12
2019-03-02T16:21:19.583Z,10.37
2019-03-02T16:23:47.171Z,10.70
2019-03-02T16:26:28.275Z,10.97
2019-03-02T16:28:57.176Z,10.93
2019-03-02T16:31:29.534Z,9.43
2019-03-02T16:34:13.779Z,9.73
2019-03-02T16:36:43.026Z,10.27
2019-03-02T16:39:28.989Z,13.83
2019-03-02T16:41:57.957Z,10.93
2019-03-02T16:44:40.408Z,9.13
2019-03-02T16:47:25.504Z,10.23
2019-03-02T16:50:08.521Z,10.73
2019-03-02T16:52:42.860Z,10.77
2019-03-02T16:55:10.628Z,11.23
2019-03-02T16:57:42.522Z,12.03
2019-03-02T17:00:19.966Z,9.80
2019-03-02T17:02:53.023Z,10.33
2019-03-02T17:05:20.484Z,8.73
2019-03-02T17:07:49.822Z,9.17
2019-03-02T17:10:23.419Z,9.20
2019-03-02T17:12:51.063Z,7.93
2019-03-02T17:15:28.866Z,8.23
2019-03-02T17:18:03.728Z,7.17
2019-03-02T17:20:39.141Z,6.83
2019-03-02T17:23:10.188Z,7.65
2019-03-02T17:25:45.114Z,8.17
2019-03-02T17:28:12.540Z,7.77
2019-03-02T17:30:44.936Z,8.30
2019-03-02T17:33:16.876Z,6.75
2019-03-02T17:35:49.853Z,7.53
2019-03-02T17:38:22.072Z,7.03
2019-03-02T17:40:50.417Z,8.50
2019-03-02T17:43:21.248Z,7.70
2019-03-02T17:45:54.730Z,7.33
2019-03-02T17:48:28.386Z,6.33
2019-03-02T17:51:13.172Z,6.27
2019-03-02T17:53:55.596Z,6.97
2019-03-02T17:56:24.995Z,5.63
2019-03-02T17:58:55.154Z,7.83
2019-03-02T18:01:38.554Z,7.60
2019-03-02T18:04:11.508Z,7.72
2019-03-02T18:06:55.833Z,7.40
2019-03-02T18:09:24.278Z,8.37
2019-03-02T18:12:10.464Z,7.50
2019-03-02T18:14:53.565Z,8.52
2019-03-02T18:17:21.036Z,8.38
2019-03-02T18:19:48.494Z,8.90
2019-03-02T18:22:15.941Z,10.00
2019-03-02T18:24:43.394Z,10.20
2019-03-02T18:27:10.837Z,10.50
2019-03-02T18:29:38.318Z,10.43
2019-03-02T18:32:05.761Z,11.23
2019-03-02T18:34:33.203Z,10.60
2019-03-02T18:37:00.645Z,12.67
2019-03-02T18:39:28.097Z,11.23
2019-03-02T18:41:55.530Z,12.60
2019-03-02T18:44:23.890Z,13.60
2019-03-02T18:46:53.091Z,12.73
2019-03-02T18:49:22.383Z,15.20
2019-03-02T18:51:50.654Z,13.97
2019-03-02T18:54:18.076Z,14.87
2019-03-02T18:56:45.533Z,13.87
2019-03-02T18:59:13.013Z,12.90
2019-03-02T19:01:40.434Z,15.47
2019-03-02T19:04:07.896Z,15.67
2019-03-02T19:06:35.328Z,15.03
2019-03-02T19:09:02.781Z,13.70
2019-03-02T19:11:30.245Z,15.43
2019-03-02T19:13:57.711Z,15.10
2019-03-02T19:16:25.245Z,12.93
2019-03-02T19:18:52.779Z,14.27
2019-03-02T19:21:20.261Z,15.87
2019-03-02T19:23:47.708Z,13.87
2019-03-02T19:26:15.170Z,14.60
2019-03-02T19:28:42.600Z,14.77
2019-03-02T19:31:10.089Z,14.00
2019-03-02T19:33:37.546Z,15.73
2019-03-02T19:36:04.999Z,14.13
2019-03-02T19:38:32.434Z,12.40
2019-03-02T19:40:59.932Z,12.15
2019-03-02T19:43:33.108Z,12.97
2019-03-02T19:46:02.523Z,14.13
2019-03-02T19:48:28.038Z,13.20
2019-03-02T19:50:56.645Z,13.47
2019-03-02T19:53:24.116Z,13.20
2019-03-02T19:55:51.544Z,13.30
2019-03-02T19:58:18.975Z,13.63
2019-03-02T20:00:46.551Z,13.43
2019-03-02T20:03:13.989Z,15.00
2019-03-02T20:05:41.440Z,15.98
2019-03-02T20:08:08.854Z,15.93
2019-03-02T20:10:36.311Z,15.83
2019-03-02T20:13:03.752Z,15.07
2019-03-02T20:15:31.277Z,15.37
2019-03-02T20:17:58.692Z,15.07
2019-03-02T20:20:26.200Z,15.40
2019-03-02T20:22:53.714Z,13.33
2019-03-02T20:25:21.189Z,12.20
2019-03-02T20:27:48.660Z,13.13
2019-03-02T20:30:16.893Z,9.27
2019-03-02T20:32:44.346Z,12.30
2019-03-02T20:35:12.414Z,12.60
2019-03-02T20:37:40.034Z,12.73
2019-03-02T20:40:08.261Z,11.95
2019-03-02T20:42:35.752Z,13.07
2019-03-02T20:45:03.216Z,11.77
2019-03-02T20:47:30.698Z,12.00
2019-03-02T20:49:58.144Z,10.27
2019-03-02T20:52:26.621Z,11.40
2019-03-02T20:54:54.083Z,10.83
2019-03-02T20:57:21.513Z,10.77
2019-03-02T20:59:48.952Z,11.67
2019-03-02T21:02:16.402Z,12.70
2019-03-02T21:04:43.844Z,11.47
2019-03-02T21:07:11.295Z,11.77
2019-03-02T21:09:40.677Z,12.90
2019-03-02T21:12:06.219Z,11.73
2019-03-02T21:14:33.673Z,11.60
2019-03-02T21:17:01.089Z,12.20
2019-03-02T21:19:28.542Z,10.60
2019-03-02T21:21:56.018Z,9.93
2019-03-02T21:24:23.466Z,8.27
2019-03-02T21:26:50.892Z,9.30
2019-03-02T21:29:18.332Z,9.03
2019-03-02T21:31:45.765Z,8.50
2019-03-02T21:34:13.219Z,8.10
2019-03-02T21:36:40.630Z,8.00
2019-03-02T21:39:08.078Z,7.40
2019-03-02T21:41:36.590Z,7.20
2019-03-02T21:44:04.069Z,6.33
2019-03-02T21:46:31.497Z,6.40
2019-03-02T21:48:58.962Z,6.30
2019-03-02T21:51:26.392Z,6.83
2019-03-02T21:53:53.843Z,6.77
2019-03-02T21:56:21.327Z,7.17
2019-03-02T21:58:48.827Z,6.40
2019-03-02T22:01:16.253Z,4.80
2019-03-02T22:03:43.698Z,6.50
2019-03-02T22:06:11.113Z,5.50
2019-03-02T22:08:38.564Z,6.00
2019-03-02T22:11:07.005Z,3.93
2019-03-02T22:13:34.507Z,4.70
2019-03-02T22:16:03.644Z,5.40
2019-03-02T22:18:31.069Z,5.57
2019-03-02T22:20:58.526Z,4.80
2019-03-02T22:23:26.021Z,5.00
2019-03-02T22:25:53.843Z,5.60
2019-03-02T22:28:22.586Z,5.93
2019-03-02T22:30:50.014Z,5.67
2019-03-02T22:33:17.451Z,5.50
2019-03-02T22:35:44.943Z,6.03
2019-03-02T22:38:12.373Z,6.33
2019-03-02T22:40:39.802Z,5.77
2019-03-02T22:43:07.250Z,6.17
2019-03-02T22:45:34.683Z,5.70
2019-03-02T22:48:02.155Z,6.40
2019-03-02T22:50:30.186Z,7.63
2019-03-02T22:52:57.643Z,7.10
2019-03-02T22:55:25.873Z,7.23
2019-03-02T22:57:53.354Z,7.60
2019-03-02T23:00:38.171Z,8.17
2019-03-02T23:03:06.314Z,8.93
2019-03-02T23:05:33.934Z,8.90
2019-03-02T23:08:01.483Z,8.68
2019-03-02T23:10:29.086Z,9.40
2019-03-02T23:12:56.885Z,9.27
2019-03-02T23:15:25.285Z,8.23
2019-03-02T23:17:52.807Z,8.50
2019-03-02T23:20:20.273Z,8.43
2019-03-02T23:22:47.723Z,8.03
2019-03-02T23:25:15.206Z,7.07
2019-03-02T23:27:42.641Z,7.50
2019-03-02T23:30:18.774Z,7.17
2019-03-02T23:32:46.220Z,6.40
2019-03-02T23:35:13.685Z,7.07
2019-03-02T23:37:41.181Z,6.57
2019-03-02T23:40:11.559Z,6.13
2019-03-02T23:42:39.013Z,6.50
2019-03-02T23:45:07.179Z,5.97
2019-03-02T23:47:34.619Z,5.73
2019-03-02T23:50:02.099Z,6.77
2019-03-02T23:52:29.606Z,5.13
2019-03-02T23:54:57.032Z,5.85
2019-03-02T23:57:24.471Z,4.80
2019-03-02T23:59:51.945Z,5.10
